createdAt,value
2023-11-18T00:00:17.778Z,52.67
2023-11-18T00:02:48.052Z,52.84
2023-11-18T00:05:17.139Z,52.62
2023-11-18T00:07:44.823Z,52.60
2023-11-18T00:10:12.495Z,53.24
2023-11-18T00:12:43.153Z,52.96
2023-11-18T00:15:12.874Z,52.98
2023-11-18T00:17:40.553Z,52.89
2023-11-18T00:20:13.637Z,52.92
2023-11-18T00:22:42.857Z,53.02
2023-11-18T00:25:10.676Z,53.16
2023-11-18T00:27:41.057Z,53.58
2023-11-18T00:30:14.331Z,53.20
2023-11-18T00:32:42.124Z,53.51
2023-11-18T00:35:11.899Z,53.29
2023-11-18T00:37:39.359Z,53.05
2023-11-18T00:40:09.073Z,53.47
2023-11-18T00:42:38.924Z,53.32
2023-11-18T00:45:06.764Z,53.33
2023-11-18T00:47:34.917Z,53.47
2023-11-18T00:50:04.147Z,53.51
2023-11-18T00:52:31.473Z,53.27
2023-11-18T00:54:58.621Z,53.45
2023-11-18T00:57:25.739Z,53.60
2023-11-18T00:59:58.932Z,53.71
2023-11-18T01:02:26.172Z,53.62
2023-11-18T01:04:53.836Z,53.63
2023-11-18T01:07:21.043Z,53.92
2023-11-18T01:09:48.165Z,53.65
2023-11-18T01:12:15.461Z,54.04
2023-11-18T01:14:43.268Z,54.00
2023-11-18T01:17:10.697Z,53.96
2023-11-18T01:19:37.842Z,53.74
2023-11-18T01:22:07.876Z,53.97
2023-11-18T01:24:35.295Z,53.72
2023-11-18T01:27:03.161Z,54.02
2023-11-18T01:29:30.468Z,53.77
2023-11-18T01:31:59.869Z,53.61
2023-11-18T01:34:29.449Z,54.09
2023-11-18T01:36:58.090Z,53.83
2023-11-18T01:39:26.709Z,53.70
2023-11-18T01:41:53.893Z,54.12
2023-11-18T01:44:21.492Z,53.82
2023-11-18T01:46:49.087Z,54.07
2023-11-18T01:49:16.566Z,53.97
2023-11-18T01:51:47.041Z,54.24
2023-11-18T01:54:20.557Z,54.50
2023-11-18T01:56:49.673Z,54.23
2023-11-18T01:59:20.384Z,54.21
2023-11-18T02:01:55.588Z,54.31
2023-11-18T02:04:23.338Z,54.44
2023-11-18T02:06:51.392Z,54.61
2023-11-18T02:09:30.558Z,54.92
2023-11-18T02:12:51.994Z,55.18
2023-11-18T02:15:22.218Z,54.97
2023-11-18T02:17:51.301Z,55.07
2023-11-18T02:20:22.553Z,54.90
2023-11-18T02:22:50.146Z,54.98
2023-11-18T02:25:19.837Z,54.92
2023-11-18T02:27:47.382Z,54.89
2023-11-18T02:30:18.896Z,54.79
2023-11-18T02:32:49.770Z,55.34
2023-11-18T02:35:27.233Z,55.53
2023-11-18T02:37:56.573Z,55.07
2023-11-18T02:40:42.238Z,55.42
2023-11-18T02:43:11.671Z,55.23
2023-11-18T02:45:39.833Z,55.13
2023-11-18T02:48:08.309Z,55.26
2023-11-18T02:50:37.551Z,55.21
2023-11-18T02:53:06.583Z,55.17
2023-11-18T02:55:34.079Z,55.20
2023-11-18T02:58:06.681Z,54.92
2023-11-18T03:00:35.327Z,54.89
2023-11-18T03:03:04.425Z,55.10
2023-11-18T03:05:32.437Z,54.92
2023-11-18T03:07:59.874Z,54.87
2023-11-18T03:10:27.704Z,55.09
2023-11-18T03:12:55.626Z,54.95
2023-11-18T03:15:25.842Z,54.98
2023-11-18T03:17:53.506Z,54.79
2023-11-18T03:20:24.407Z,54.81
2023-11-18T03:22:53.271Z,54.96
2023-11-18T03:25:23.489Z,54.73
2023-11-18T03:27:51.117Z,54.80
2023-11-18T03:30:18.500Z,54.99
2023-11-18T03:32:46.738Z,54.79
2023-11-18T03:35:14.132Z,54.71
2023-11-18T03:37:45.295Z,54.74
2023-11-18T03:40:16.112Z,54.97
2023-11-18T03:42:43.887Z,54.81
2023-11-18T03:45:11.693Z,54.71
2023-11-18T03:47:39.586Z,54.69
2023-11-18T03:50:09.689Z,54.80
2023-11-18T03:52:40.150Z,55.20
2023-11-18T03:55:08.220Z,54.94
2023-11-18T03:57:38.027Z,55.03
2023-11-18T04:00:05.810Z,55.39
2023-11-18T04:02:58.328Z,55.11
2023-11-18T04:05:38.528Z,55.06
2023-11-18T04:08:23.526Z,55.21
2023-11-18T04:11:47.617Z,55.64
2023-11-18T04:14:47.733Z,55.32
2023-11-18T04:18:19.466Z,55.54
2023-11-18T04:22:11.580Z,55.81
2023-11-18T04:25:38.079Z,55.80
2023-11-18T04:29:07.893Z,55.52
2023-11-18T04:43:42.780Z,56.03
2023-11-18T04:51:04.283Z,55.79
2023-11-18T04:54:49.411Z,55.88
2023-11-18T04:58:35.043Z,55.99
2023-11-18T05:01:47.165Z,56.22
2023-11-18T05:04:51.817Z,56.00
2023-11-18T05:10:56.906Z,55.89
2023-11-18T05:13:33.683Z,55.84
2023-11-18T05:17:00.432Z,56.08
2023-11-18T05:23:15.825Z,56.04
2023-11-18T05:31:08.856Z,56.17
2023-11-18T05:35:02.838Z,55.94
2023-11-18T05:37:50.107Z,55.82
2023-11-18T05:40:48.942Z,56.13
2023-11-18T05:44:56.526Z,55.91
2023-11-18T05:48:24.627Z,55.91
2023-11-18T05:55:52.794Z,55.63
2023-11-18T06:02:23.225Z,55.27
2023-11-18T06:08:49.312Z,54.95
2023-11-18T06:16:08.551Z,55.24
2023-11-18T06:19:24.129Z,55.20
2023-11-18T06:28:55.648Z,54.96
2023-11-18T06:31:43.483Z,54.79
2023-11-18T06:35:17.813Z,54.80
2023-11-18T06:38:05.043Z,54.64
2023-11-18T06:41:27.837Z,54.63
2023-11-18T06:47:57.722Z,54.75
2023-11-18T06:50:48.800Z,54.63
2023-11-18T06:53:37.513Z,54.52
2023-11-18T07:06:24.910Z,54.86
2023-11-18T07:10:26.984Z,54.68
2023-11-18T07:13:16.387Z,54.56
2023-11-18T07:16:17.774Z,55.00
2023-11-18T07:19:56.522Z,54.82
2023-11-18T07:23:35.972Z,54.77
2023-11-18T07:38:50.285Z,54.00
2023-11-18T07:42:38.079Z,53.92
2023-11-18T07:46:22.117Z,53.32
2023-11-18T07:49:21.596Z,53.12
2023-11-18T07:52:57.430Z,53.02
2023-11-18T07:55:51.653Z,53.00
2023-11-18T07:58:52.387Z,52.62
2023-11-18T08:01:57.168Z,52.35
2023-11-18T08:05:26.775Z,52.33
2023-11-18T08:09:00.457Z,52.15
2023-11-18T08:14:55.142Z,52.21
2023-11-18T08:21:14.002Z,51.95
2023-11-18T08:24:04.659Z,51.28
2023-11-18T08:26:57.722Z,51.01
2023-11-18T08:29:33.938Z,51.01
2023-11-18T08:32:10.812Z,50.55
2023-11-18T08:34:43.132Z,50.77
2023-11-18T08:37:39.025Z,50.62
2023-11-18T08:40:19.437Z,50.77
2023-11-18T08:42:54.027Z,50.73
2023-11-18T08:45:34.977Z,50.75
2023-11-18T08:48:13.611Z,51.18
2023-11-18T08:50:42.679Z,51.19
2023-11-18T08:53:19.874Z,50.05
2023-11-18T08:55:55.891Z,49.03
2023-11-18T08:58:31.031Z,48.25
2023-11-18T09:01:18.328Z,47.40
2023-11-18T09:03:52.504Z,46.43
2023-11-18T09:06:30.320Z,46.12
2023-11-18T09:08:59.664Z,45.48
2023-11-18T09:11:37.230Z,44.63
2023-11-18T09:14:05.723Z,43.84
2023-11-18T09:16:36.302Z,43.28
2023-11-18T09:19:09.980Z,41.99
2023-11-18T09:21:41.891Z,42.40
2023-11-18T09:24:16.007Z,42.39
2023-11-18T09:26:52.971Z,42.90
2023-11-18T09:29:27.484Z,43.33
2023-11-18T09:32:07.605Z,43.22
2023-11-18T09:34:54.856Z,42.23
2023-11-18T09:37:24.654Z,42.11
2023-11-18T09:40:13.373Z,40.93
2023-11-18T09:42:45.156Z,40.19
2023-11-18T09:45:15.643Z,40.09
2023-11-18T09:47:49.041Z,39.87
2023-11-18T09:50:35.804Z,39.01
2023-11-18T09:53:20.803Z,37.42
2023-11-18T09:56:02.717Z,36.97
2023-11-18T09:58:50.380Z,36.87
2023-11-18T10:01:21.553Z,37.10
2023-11-18T10:03:56.265Z,36.87
2023-11-18T10:06:39.883Z,36.19
2023-11-18T10:09:17.474Z,36.63
2023-11-18T10:11:56.534Z,36.88
2023-11-18T10:14:31.222Z,36.76
2023-11-18T10:17:08.642Z,36.16
2023-11-18T10:20:04.211Z,35.18
2023-11-18T10:22:34.453Z,35.44
2023-11-18T10:25:19.132Z,34.36
2023-11-18T10:27:49.106Z,34.69
2023-11-18T10:30:29.313Z,34.09
2023-11-18T10:33:09.797Z,34.44
2023-11-18T10:35:42.377Z,34.27
2023-11-18T10:38:13.636Z,34.98
2023-11-18T10:40:52.705Z,34.50
2023-11-18T10:43:25.750Z,34.11
2023-11-18T10:46:18.328Z,33.64
2023-11-18T10:48:56.691Z,33.31
2023-11-18T10:51:37.524Z,33.64
2023-11-18T10:54:21.692Z,32.92
2023-11-18T10:57:01.155Z,33.05
2023-11-18T10:59:34.988Z,31.79
2023-11-18T11:02:22.795Z,31.31
2023-11-18T11:04:54.512Z,34.66
2023-11-18T11:07:25.332Z,37.50
2023-11-18T11:10:05.961Z,35.01
2023-11-18T11:12:53.808Z,34.17
2023-11-18T11:15:33.999Z,34.94
2023-11-18T11:18:19.553Z,37.78
2023-11-18T11:21:16.761Z,33.63
2023-11-18T11:23:58.244Z,33.84
2023-11-18T11:27:05.817Z,31.48
2023-11-18T11:30:46.857Z,31.14
2023-11-18T11:36:33.572Z,33.01
2023-11-18T11:39:21.085Z,31.80
2023-11-18T11:42:06.451Z,32.21
2023-11-18T11:44:55.355Z,32.33
2023-11-18T11:47:43.787Z,33.57
2023-11-18T11:50:40.566Z,32.75
2023-11-18T11:53:41.925Z,33.00
2023-11-18T11:56:22.711Z,31.15
2023-11-18T11:59:13.982Z,30.46
2023-11-18T12:01:59.498Z,29.59
2023-11-18T12:04:43.366Z,29.98
2023-11-18T12:07:24.433Z,29.83
2023-11-18T12:10:11.605Z,28.96
2023-11-18T12:12:43.889Z,29.22
2023-11-18T12:15:58.939Z,29.46
2023-11-18T12:18:28.499Z,29.21
2023-11-18T12:20:58.134Z,28.13
2023-11-18T12:23:28.891Z,29.26
2023-11-18T12:26:24.454Z,28.20
2023-11-18T12:29:41.214Z,29.42
2023-11-18T12:33:13.858Z,28.70
2023-11-18T12:36:48.600Z,28.38
2023-11-18T12:40:18.402Z,28.78
2023-11-18T12:43:15.053Z,28.87
2023-11-18T12:49:25.896Z,29.17
2023-11-18T12:52:20.330Z,29.54
2023-11-18T12:55:00.525Z,29.16
2023-11-18T12:57:40.198Z,30.25
2023-11-18T13:00:32.167Z,28.66
2023-11-18T13:03:06.247Z,28.68
2023-11-18T13:05:46.744Z,29.15
2023-11-18T13:08:24.365Z,29.29
2023-11-18T13:11:06.134Z,30.88
2023-11-18T13:13:45.879Z,29.12
2023-11-18T13:16:32.104Z,28.22
2023-11-18T13:19:08.818Z,28.68
2023-11-18T13:21:39.440Z,30.47
2023-11-18T13:24:20.134Z,29.52
2023-11-18T13:26:54.860Z,28.56
2023-11-18T13:29:35.524Z,29.59
2023-11-18T13:32:16.950Z,30.00
2023-11-18T13:34:53.935Z,29.42
2023-11-18T13:37:31.352Z,29.28
2023-11-18T13:40:18.754Z,30.24
2023-11-18T13:43:11.665Z,30.18
2023-11-18T13:45:52.557Z,29.69
2023-11-18T13:48:40.852Z,29.52
2023-11-18T13:51:39.264Z,31.58
2023-11-18T13:54:24.432Z,29.69
2023-11-18T13:57:00.900Z,29.75
2023-11-18T13:59:41.233Z,30.25
2023-11-18T14:02:12.349Z,31.83
2023-11-18T14:05:08.683Z,29.95
2023-11-18T14:07:50.672Z,29.41
2023-11-18T14:10:28.362Z,29.55
2023-11-18T14:16:11.883Z,31.04
2023-11-18T14:19:15.380Z,30.48
2023-11-18T14:21:57.814Z,30.92
2023-11-18T14:27:55.113Z,30.60
2023-11-18T14:30:37.544Z,31.57
2023-11-18T14:33:34.177Z,33.22
2023-11-18T14:36:21.188Z,33.78
2023-11-18T14:39:28.538Z,33.39
2023-11-18T14:45:37.453Z,34.82
2023-11-18T14:48:18.913Z,35.46
2023-11-18T14:51:33.185Z,34.52
2023-11-18T14:54:28.324Z,35.22
2023-11-18T15:00:42.905Z,36.95
2023-11-18T15:07:20.754Z,39.46
2023-11-18T15:10:37.595Z,40.47
2023-11-18T15:13:33.210Z,41.03
2023-11-18T15:19:42.914Z,42.05
2023-11-18T15:29:37.789Z,43.79
2023-11-18T15:35:25.574Z,45.10
2023-11-18T15:47:22.312Z,46.19
2023-11-18T15:50:36.768Z,46.46
2023-11-18T15:53:40.607Z,48.19
2023-11-18T15:56:24.066Z,46.88
2023-11-18T15:59:12.620Z,47.89
2023-11-18T16:02:08.521Z,48.97
2023-11-18T16:05:01.573Z,47.73
2023-11-18T16:07:42.370Z,47.37
2023-11-18T16:10:42.482Z,48.32
2023-11-18T16:13:47.442Z,49.60
2023-11-18T16:19:41.104Z,48.96
2023-11-18T16:22:41.139Z,48.86
2023-11-18T16:28:59.903Z,48.53
2023-11-18T16:32:23.677Z,48.51
2023-11-18T16:35:22.765Z,47.99
2023-11-18T16:38:32.268Z,49.14
2023-11-18T16:41:41.045Z,50.30
2023-11-18T16:44:53.674Z,49.80
2023-11-18T16:51:26.474Z,49.56
2023-11-18T16:54:48.140Z,51.58
2023-11-18T16:57:53.850Z,51.34
2023-11-18T17:07:40.512Z,51.48
2023-11-18T17:10:19.032Z,52.10
2023-11-18T17:13:00.573Z,50.56
2023-11-18T17:16:23.013Z,50.96
2023-11-18T17:19:20.268Z,50.79
2023-11-18T17:22:17.171Z,52.41
2023-11-18T17:27:56.329Z,52.73
2023-11-18T17:30:49.560Z,51.80
2023-11-18T17:33:38.195Z,52.41
2023-11-18T17:36:29.889Z,51.37
2023-11-18T17:39:24.563Z,53.10
2023-11-18T17:42:28.442Z,52.41
2023-11-18T17:48:38.257Z,53.63
2023-11-18T17:51:24.823Z,52.80
2023-11-18T17:54:34.598Z,53.10
2023-11-18T17:57:34.298Z,52.60
2023-11-18T18:00:42.441Z,53.67
2023-11-18T18:06:38.841Z,52.71
2023-11-18T18:12:48.389Z,53.12
2023-11-18T18:15:52.586Z,52.76
2023-11-18T18:19:05.237Z,52.92
2023-11-18T18:22:17.922Z,54.92
2023-11-18T18:25:16.630Z,54.09
2023-11-18T18:28:19.888Z,54.42
2023-11-18T18:31:16.175Z,54.74
2023-11-18T18:33:56.951Z,53.36
2023-11-18T18:36:37.457Z,54.97
2023-11-18T18:39:17.435Z,54.38
2023-11-18T18:42:05.413Z,54.66
2023-11-18T18:44:48.787Z,54.88
2023-11-18T18:47:22.148Z,53.75
2023-11-18T18:50:21.017Z,55.58
2023-11-18T18:53:01.812Z,55.70
2023-11-18T18:55:40.319Z,54.21
2023-11-18T18:58:17.192Z,54.12
2023-11-18T19:01:01.004Z,53.86
2023-11-18T19:03:54.344Z,55.27
2023-11-18T19:06:33.365Z,54.20
2023-11-18T19:09:15.064Z,55.50
2023-11-18T19:12:03.419Z,55.06
2023-11-18T19:14:54.827Z,54.94
2023-11-18T19:17:24.733Z,54.21
2023-11-18T19:20:20.648Z,54.70
2023-11-18T19:22:57.652Z,55.05
2023-11-18T19:25:31.787Z,55.57
2023-11-18T19:28:13.266Z,56.06
2023-11-18T19:30:51.635Z,54.69
2023-11-18T19:33:36.692Z,56.75
2023-11-18T19:36:37.642Z,54.76
2023-11-18T19:39:21.637Z,54.33
2023-11-18T19:42:04.313Z,54.07
2023-11-18T19:44:39.187Z,54.34
2023-11-18T19:47:26.217Z,54.44
2023-11-18T19:50:15.101Z,54.72
2023-11-18T19:52:57.873Z,54.26
2023-11-18T19:55:37.656Z,54.34
2023-11-18T19:58:18.125Z,53.65
2023-11-18T20:01:01.586Z,53.09
2023-11-18T20:03:33.528Z,52.93
2023-11-18T20:06:11.521Z,53.16
2023-11-18T20:08:40.239Z,52.83
2023-11-18T20:11:26.224Z,52.65
2023-11-18T20:14:12.236Z,52.40
2023-11-18T20:16:53.725Z,51.90
2023-11-18T20:20:19.246Z,51.81
2023-11-18T20:23:02.719Z,51.52
2023-11-18T20:25:46.294Z,51.81
2023-11-18T20:28:24.276Z,51.72
2023-11-18T20:30:59.283Z,51.52
2023-11-18T20:33:30.882Z,51.41
2023-11-18T20:36:30.827Z,51.66
2023-11-18T20:39:24.077Z,51.75
2023-11-18T20:42:15.926Z,51.89
2023-11-18T20:45:15.784Z,51.46
2023-11-18T20:47:59.046Z,51.70
2023-11-18T20:50:52.896Z,51.91
2023-11-18T20:53:35.313Z,52.15
2023-11-18T20:56:38.723Z,52.05
2023-11-18T20:59:30.929Z,51.71
2023-11-18T21:05:31.812Z,51.46
2023-11-18T21:08:28.486Z,51.30
2023-11-18T21:17:50.835Z,51.17
2023-11-18T21:23:51.655Z,50.92
2023-11-18T21:27:23.459Z,51.48
2023-11-18T21:30:12.493Z,51.36
2023-11-18T21:33:17.783Z,50.97
2023-11-18T21:36:08.635Z,50.74
2023-11-18T21:42:24.796Z,51.24
2023-11-18T21:45:06.801Z,51.25
2023-11-18T21:48:19.694Z,51.33
2023-11-18T21:51:21.899Z,51.34
2023-11-18T21:54:16.579Z,51.54
2023-11-18T21:56:59.944Z,51.02
2023-11-18T21:59:46.486Z,51.11
2023-11-18T22:03:08.965Z,50.96
2023-11-18T22:06:31.611Z,50.09
2023-11-18T22:09:19.225Z,49.79
2023-11-18T22:11:53.792Z,49.62
2023-11-18T22:14:57.076Z,49.97
2023-11-18T22:17:54.229Z,49.85
2023-11-18T22:20:57.605Z,50.01
2023-11-18T22:31:22.959Z,49.23
2023-11-18T22:34:41.128Z,49.52
2023-11-18T22:37:37.675Z,49.54
2023-11-18T22:40:44.465Z,49.38
2023-11-18T22:43:41.483Z,49.65
2023-11-18T22:46:40.055Z,49.82
2023-11-18T22:52:47.402Z,49.61
2023-11-18T22:55:24.361Z,49.83
2023-11-18T22:58:06.605Z,49.65
2023-11-18T23:01:13.284Z,49.52
2023-11-18T23:04:06.131Z,49.42
2023-11-18T23:06:52.166Z,49.54
2023-11-18T23:09:42.778Z,49.64
2023-11-18T23:12:34.134Z,49.78
2023-11-18T23:15:20.359Z,49.48
2023-11-18T23:18:07.454Z,49.90
2023-11-18T23:20:58.861Z,49.62
2023-11-18T23:23:37.699Z,49.95
2023-11-18T23:26:18.007Z,50.11
2023-11-18T23:29:04.542Z,50.23
2023-11-18T23:31:38.333Z,47.26
2023-11-18T23:34:15.841Z,45.64
2023-11-18T23:37:01.459Z,43.21
2023-11-18T23:39:41.239Z,44.34
2023-11-18T23:42:16.824Z,43.95
2023-11-18T23:44:53.142Z,43.45
2023-11-18T23:47:22.978Z,43.56
2023-11-18T23:49:57.807Z,42.41
2023-11-18T23:52:28.482Z,42.37
2023-11-18T23:55:04.179Z,42.64
2023-11-18T23:58:00.875Z,42.04
